KDUA/DUA METAR and TAF weather

Enter ICAO airport designator
Station Type Date Time Source
KDUA METAR 2021/05/14 07:15 UTC NOAA

KDUA 140715Z AUTO 00000KT 10SM CLR 12/09 A3026 RMK AO2


Station Type Date Time Source
KDUA Decoded METAR 2021/05/14 07:15 UTC NOAA

Durant, Eaker Field Airport, OK, United States (KDUA) 33-56-32N 096-23-40W
May 14, 2021 - 03:15 AM EDT / 2021.05.14 0715 UTC
Wind: Calm:0
Visibility: 10 mile(s):0
Sky conditions: clear
Temperature: 53 F (12 C)
Dew Point: 48 F (9 C)
Relative Humidity: 81%
Pressure (altimeter): 30.26 in. Hg (1024 hPa)
ob: KDUA 140715Z AUTO 00000KT 10SM CLR 12/09 A3026 RMK AO2
cycle: 7

Station Type Date Time Source
KDUA TAF UTC NOAA

Error!

Example: see airport list